Weather at Vratsa Airport

Public forecast

Using degrees Celsius for public forecast. Weather courtesy of forecast.io.

Closest aviation weather report (METAR) to Vratsa Airport

Closest report is Sofia Airport, 34.0 nm (63.0 km) S. Retrieved 2022/07/03 05:30 UTC (8 minutes ago):

LBSF 030530Z 03003KT 340V080 CAVOK 20/16 Q1021 NOSIG

Closest aviation forecast (TAF) to Vratsa Airport

Closest forecast is Sofia Airport, 34.0 nm (63.0 km) S. Retrieved 2022-07-03 00:18 UTC (5 hours ago):

TAF LBSF 022300Z 0300/0324 VRB04KT 9999 SCT050 PROB40 TEMPO 0302/0305 3000 BR SCT005 BECMG 0309/0311 08012KT PROB40 TEMPO 0311/0317 5000 TSRA SCT040CB BKN060